sensor_id;sensor_type;location;lat;lon;timestamp;pressure;altitude;pressure_sealevel;temperature;humidity
5879;BME280;2965;42.640;23.370;2023-02-17T05:02:52;95375.47;;;0.48;100.00
5879;BME280;2965;42.640;23.370;2023-02-17T05:05:18;95381.00;;;0.29;100.00
5879;BME280;2965;42.640;23.370;2023-02-17T05:07:44;95373.50;;;0.39;100.00
5879;BME280;2965;42.640;23.370;2023-02-17T05:10:11;95382.03;;;0.39;100.00
5879;BME280;2965;42.640;23.370;2023-02-17T05:12:37;95384.50;;;0.28;100.00
5879;BME280;2965;42.640;23.370;2023-02-17T05:15:04;95403.03;;;0.33;100.00
5879;BME280;2965;42.640;23.370;2023-02-17T05:17:30;95391.97;;;0.58;100.00
5879;BME280;2965;42.640;23.370;2023-02-17T05:22:25;95378.25;;;0.70;100.00
5879;BME280;2965;42.640;23.370;2023-02-17T05:24:51;95385.16;;;0.57;100.00
5879;BME280;2965;42.640;23.370;2023-02-17T05:27:16;95401.44;;;0.70;100.00
5879;BME280;2965;42.640;23.370;2023-02-17T05:29:41;95400.81;;;0.80;100.00
5879;BME280;2965;42.640;23.370;2023-02-17T05:32:07;95413.13;;;0.89;100.00
5879;BME280;2965;42.640;23.370;2023-02-17T05:34:32;95399.19;;;1.04;100.00
5879;BME280;2965;42.640;23.370;2023-02-17T05:36:58;95418.47;;;1.11;100.00
5879;BME280;2965;42.640;23.370;2023-02-17T05:39:23;95418.75;;;1.19;100.00
5879;BME280;2965;42.640;23.370;2023-02-17T05:41:49;95415.28;;;1.20;100.00
5879;BME280;2965;42.640;23.370;2023-02-17T05:44:14;95417.75;;;1.09;100.00
5879;BME280;2965;42.640;23.370;2023-02-17T05:46:40;95419.19;;;1.13;100.00
5879;BME280;2965;42.640;23.370;2023-02-17T05:49:05;95423.09;;;1.32;100.00
5879;BME280;2965;42.640;23.370;2023-02-17T05:51:31;95427.41;;;1.31;100.00
5879;BME280;2965;42.640;23.370;2023-02-17T05:53:56;95419.88;;;1.41;100.00
5879;BME280;2965;42.640;23.370;2023-02-17T05:56:21;95435.53;;;1.50;100.00
5879;BME280;2965;42.640;23.370;2023-02-17T05:58:47;95428.41;;;1.54;100.00
5879;BME280;2965;42.640;23.370;2023-02-17T06:01:12;95431.50;;;1.59;100.00
5879;BME280;2965;42.640;23.370;2023-02-17T06:03:38;95426.63;;;1.67;100.00
5879;BME280;2965;42.640;23.370;2023-02-17T06:06:04;95431.75;;;1.80;100.00
5879;BME280;2965;42.640;23.370;2023-02-17T06:08:29;95433.19;;;1.84;100.00
5879;BME280;2965;42.640;23.370;2023-02-17T06:10:55;95435.97;;;1.81;100.00
5879;BME280;2965;42.640;23.370;2023-02-17T06:13:20;95421.09;;;1.61;100.00
5879;BME280;2965;42.640;23.370;2023-02-17T06:15:46;95437.72;;;1.44;100.00
5879;BME280;2965;42.640;23.370;2023-02-17T06:18:12;95424.06;;;1.55;100.00
5879;BME280;2965;42.640;23.370;2023-02-17T06:20:37;95433.78;;;0.74;100.00
5879;BME280;2965;42.640;23.370;2023-02-17T06:23:02;95417.22;;;0.91;100.00
5879;BME280;2965;42.640;23.370;2023-02-17T06:25:28;95424.38;;;0.48;100.00
5879;BME280;2965;42.640;23.370;2023-02-17T06:27:53;95436.31;;;0.89;100.00
5879;BME280;2965;42.640;23.370;2023-02-17T06:30:19;95417.53;;;1.25;100.00
5879;BME280;2965;42.640;23.370;2023-02-17T06:32:45;95425.59;;;0.95;100.00
5879;BME280;2965;42.640;23.370;2023-02-17T06:35:11;95428.66;;;1.13;100.00
5879;BME280;2965;42.640;23.370;2023-02-17T06:37:36;95429.69;;;1.36;100.00
5879;BME280;2965;42.640;23.370;2023-02-17T06:40:02;95434.72;;;1.50;100.00
5879;BME280;2965;42.640;23.370;2023-02-17T06:42:27;95445.88;;;1.38;100.00
5879;BME280;2965;42.640;23.370;2023-02-17T06:44:53;95440.19;;;1.33;100.00
5879;BME280;2965;42.640;23.370;2023-02-17T06:47:18;95438.97;;;1.51;100.00
5879;BME280;2965;42.640;23.370;2023-02-17T06:49:43;95451.06;;;1.74;100.00
5879;BME280;2965;42.640;23.370;2023-02-17T06:52:09;95446.34;;;1.68;100.00
5879;BME280;2965;42.640;23.370;2023-02-17T06:54:34;95452.00;;;1.73;100.00
5879;BME280;2965;42.640;23.370;2023-02-17T06:56:59;95455.25;;;1.64;100.00
5879;BME280;2965;42.640;23.370;2023-02-17T06:59:25;95450.00;;;1.90;100.00
5879;BME280;2965;42.640;23.370;2023-02-17T07:01:50;95454.69;;;2.09;100.00
5879;BME280;2965;42.640;23.370;2023-02-17T07:04:16;95445.84;;;2.24;100.00
5879;BME280;2965;42.640;23.370;2023-02-17T07:06:41;95458.97;;;2.45;100.00
5879;BME280;2965;42.640;23.370;2023-02-17T07:09:07;95454.66;;;2.57;100.00
5879;BME280;2965;42.640;23.370;2023-02-17T07:11:32;95457.53;;;2.65;100.00
5879;BME280;2965;42.640;23.370;2023-02-17T07:13:58;95460.75;;;2.80;100.00
5879;BME280;2965;42.640;23.370;2023-02-17T07:16:24;95461.25;;;2.96;100.00
5879;BME280;2965;42.640;23.370;2023-02-17T07:18:50;95461.97;;;2.98;100.00
5879;BME280;2965;42.640;23.370;2023-02-17T07:21:15;95461.56;;;3.15;100.00
5879;BME280;2965;42.640;23.370;2023-02-17T07:23:41;95472.84;;;3.25;100.00
5879;BME280;2965;42.640;23.370;2023-02-17T07:26:08;95469.09;;;3.29;100.00
5879;BME280;2965;42.640;23.370;2023-02-17T07:28:35;95468.84;;;3.44;100.00
5879;BME280;2965;42.640;23.370;2023-02-17T07:31:12;95466.53;;;3.63;100.00
5879;BME280;2965;42.640;23.370;2023-02-17T07:33:38;95473.94;;;3.68;100.00
5879;BME280;2965;42.640;23.370;2023-02-17T07:36:08;95474.16;;;3.87;100.00
5879;BME280;2965;42.640;23.370;2023-02-17T07:38:34;95477.56;;;3.99;100.00
5879;BME280;2965;42.640;23.370;2023-02-17T07:41:04;95468.59;;;4.14;100.00
5879;BME280;2965;42.640;23.370;2023-02-17T07:43:30;95484.81;;;4.27;100.00
5879;BME280;2965;42.640;23.370;2023-02-17T07:45:55;95474.50;;;4.48;100.00
5879;BME280;2965;42.640;23.370;2023-02-17T07:48:21;95476.00;;;4.62;100.00
5879;BME280;2965;42.640;23.370;2023-02-17T07:50:46;95474.09;;;4.64;100.00
5879;BME280;2965;42.640;23.370;2023-02-17T07:53:11;95476.44;;;4.67;100.00
5879;BME280;2965;42.640;23.370;2023-02-17T07:55:37;95472.97;;;4.78;100.00
5879;BME280;2965;42.640;23.370;2023-02-17T07:58:02;95468.31;;;4.93;100.00
5879;BME280;2965;42.640;23.370;2023-02-17T08:00:27;95459.94;;;5.00;100.00
5879;BME280;2965;42.640;23.370;2023-02-17T08:02:53;95467.56;;;5.02;100.00
5879;BME280;2965;42.640;23.370;2023-02-17T08:05:18;95464.50;;;5.18;100.00
5879;BME280;2965;42.640;23.370;2023-02-17T08:07:43;95478.97;;;5.31;100.00
5879;BME280;2965;42.640;23.370;2023-02-17T08:10:11;95473.53;;;5.44;99.70
5879;BME280;2965;42.640;23.370;2023-02-17T08:12:55;95468.56;;;5.62;96.66
5879;BME280;2965;42.640;23.370;2023-02-17T08:15:39;95471.09;;;5.73;96.48
5879;BME280;2965;42.640;23.370;2023-02-17T08:18:05;95475.16;;;5.97;95.30
5879;BME280;2965;42.640;23.370;2023-02-17T08:20:30;95471.53;;;6.09;92.48
5879;BME280;2965;42.640;23.370;2023-02-17T08:22:56;95475.66;;;6.21;90.23
5879;BME280;2965;42.640;23.370;2023-02-17T08:25:21;95475.53;;;6.32;89.64
5879;BME280;2965;42.640;23.370;2023-02-17T08:27:47;95470.94;;;6.55;88.18
5879;BME280;2965;42.640;23.370;2023-02-17T08:30:12;95461.09;;;6.69;85.65
5879;BME280;2965;42.640;23.370;2023-02-17T08:32:38;95465.75;;;6.85;85.55
5879;BME280;2965;42.640;23.370;2023-02-17T08:35:03;95468.22;;;6.96;85.51
5879;BME280;2965;42.640;23.370;2023-02-17T08:37:30;95464.63;;;7.16;83.53
5879;BME280;2965;42.640;23.370;2023-02-17T08:39:56;95462.66;;;7.38;83.87
5879;BME280;2965;42.640;23.370;2023-02-17T08:42:24;95466.38;;;7.45;81.35
5879;BME280;2965;42.640;23.370;2023-02-17T08:44:50;95463.34;;;7.49;78.06
5879;BME280;2965;42.640;23.370;2023-02-17T08:47:15;95463.41;;;7.67;77.60
5879;BME280;2965;42.640;23.370;2023-02-17T08:49:40;95462.09;;;7.91;78.38
5879;BME280;2965;42.640;23.370;2023-02-17T08:52:06;95463.25;;;8.06;76.65
5879;BME280;2965;42.640;23.370;2023-02-17T08:54:31;95452.94;;;8.32;77.45
5879;BME280;2965;42.640;23.370;2023-02-17T08:56:57;95460.25;;;8.56;75.89
5879;BME280;2965;42.640;23.370;2023-02-17T08:59:23;95458.63;;;8.73;73.50
5879;BME280;2965;42.640;23.370;2023-02-17T09:01:48;95451.81;;;8.98;73.05
5879;BME280;2965;42.640;23.370;2023-02-17T09:04:15;95457.53;;;9.19;71.80
5879;BME280;2965;42.640;23.370;2023-02-17T09:06:47;95455.09;;;9.18;68.91
5879;BME280;2965;42.640;23.370;2023-02-17T09:09:15;95458.66;;;9.43;69.36
5879;BME280;2965;42.640;23.370;2023-02-17T09:11:42;95455.53;;;9.57;67.74
5879;BME280;2965;42.640;23.370;2023-02-17T09:14:08;95452.03;;;9.74;67.72
5879;BME280;2965;42.640;23.370;2023-02-17T09:16:33;95443.94;;;9.94;66.47
5879;BME280;2965;42.640;23.370;2023-02-17T09:18:59;95450.81;;;10.29;67.16
5879;BME280;2965;42.640;23.370;2023-02-17T09:21:24;95444.19;;;10.59;63.71
5879;BME280;2965;42.640;23.370;2023-02-17T09:23:50;95443.25;;;10.76;62.98
5879;BME280;2965;42.640;23.370;2023-02-17T09:26:17;95449.28;;;10.93;61.67
5879;BME280;2965;42.640;23.370;2023-02-17T09:28:44;95450.81;;;11.20;60.25
5879;BME280;2965;42.640;23.370;2023-02-17T09:31:18;95448.97;;;11.37;58.34
5879;BME280;2965;42.640;23.370;2023-02-17T09:33:45;95446.81;;;11.73;58.99
5879;BME280;2965;42.640;23.370;2023-02-17T09:36:14;95441.72;;;11.72;58.81
5879;BME280;2965;42.640;23.370;2023-02-17T09:38:40;95436.19;;;12.22;57.67
5879;BME280;2965;42.640;23.370;2023-02-17T09:41:25;95442.28;;;12.46;56.25
5879;BME280;2965;42.640;23.370;2023-02-17T09:43:52;95433.63;;;12.68;54.23
5879;BME280;2965;42.640;23.370;2023-02-17T09:48:48;95431.06;;;13.29;51.97
5879;BME280;2965;42.640;23.370;2023-02-17T09:51:33;95436.00;;;13.01;49.44
5879;BME280;2965;42.640;23.370;2023-02-17T09:54:11;95428.91;;;12.86;49.40
5879;BME280;2965;42.640;23.370;2023-02-17T09:56:41;95420.13;;;13.17;48.98
5879;BME280;2965;42.640;23.370;2023-02-17T09:59:41;95424.03;;;13.59;52.18
5879;BME280;2965;42.640;23.370;2023-02-17T10:02:24;95423.72;;;13.92;50.87
5879;BME280;2965;42.640;23.370;2023-02-17T10:04:51;95413.09;;;14.00;49.99
5879;BME280;2965;42.640;23.370;2023-02-17T10:07:31;95410.56;;;14.43;47.68
5879;BME280;2965;42.640;23.370;2023-02-17T10:10:12;95417.03;;;14.55;41.53
5879;BME280;2965;42.640;23.370;2023-02-17T10:12:45;95405.75;;;14.46;39.61
5879;BME280;2965;42.640;23.370;2023-02-17T10:15:16;95400.63;;;14.23;38.37
5879;BME280;2965;42.640;23.370;2023-02-17T10:18:09;95398.06;;;14.45;38.38
5879;BME280;2965;42.640;23.370;2023-02-17T10:20:48;95396.63;;;14.27;38.12
5879;BME280;2965;42.640;23.370;2023-02-17T10:23:23;95398.66;;;14.47;37.90
5879;BME280;2965;42.640;23.370;2023-02-17T10:26:09;95389.31;;;14.59;37.05
5879;BME280;2965;42.640;23.370;2023-02-17T10:28:52;95390.09;;;14.53;37.25
5879;BME280;2965;42.640;23.370;2023-02-17T10:36:56;95365.97;;;14.34;36.04
5879;BME280;2965;42.640;23.370;2023-02-17T10:41:55;95368.03;;;14.75;36.50
5879;BME280;2965;42.640;23.370;2023-02-17T10:44:22;95368.38;;;14.94;35.59
5879;BME280;2965;42.640;23.370;2023-02-17T10:46:50;95365.78;;;15.00;34.75
5879;BME280;2965;42.640;23.370;2023-02-17T10:49:29;95363.50;;;14.69;34.95
5879;BME280;2965;42.640;23.370;2023-02-17T10:52:14;95353.97;;;14.89;35.44
5879;BME280;2965;42.640;23.370;2023-02-17T10:54:49;95359.13;;;14.76;34.07
5879;BME280;2965;42.640;23.370;2023-02-17T10:57:16;95353.97;;;14.89;35.23
5879;BME280;2965;42.640;23.370;2023-02-17T10:59:45;95351.41;;;15.24;35.33
5879;BME280;2965;42.640;23.370;2023-02-17T11:02:16;95346.03;;;15.11;35.50
5879;BME280;2965;42.640;23.370;2023-02-17T11:04:43;95351.56;;;14.95;35.57
5879;BME280;2965;42.640;23.370;2023-02-17T11:07:11;95351.03;;;15.27;34.83
5879;BME280;2965;42.640;23.370;2023-02-17T11:09:43;95348.38;;;15.55;35.28
5879;BME280;2965;42.640;23.370;2023-02-17T11:12:19;95346.59;;;15.97;35.55
5879;BME280;2965;42.640;23.370;2023-02-17T11:14:48;95347.53;;;15.83;34.88
5879;BME280;2965;42.640;23.370;2023-02-17T11:17:39;95343.66;;;16.33;34.21
5879;BME280;2965;42.640;23.370;2023-02-17T11:20:24;95348.03;;;16.00;33.26
5879;BME280;2965;42.640;23.370;2023-02-17T11:23:06;95346.88;;;15.68;34.07
5879;BME280;2965;42.640;23.370;2023-02-17T11:25:35;95338.31;;;15.66;35.39
5879;BME280;2965;42.640;23.370;2023-02-17T11:28:11;95337.19;;;15.53;34.68
5879;BME280;2965;42.640;23.370;2023-02-17T11:30:38;95338.19;;;15.46;34.58
5879;BME280;2965;42.640;23.370;2023-02-17T11:33:14;95323.91;;;15.33;34.82
5879;BME280;2965;42.640;23.370;2023-02-17T11:38:24;95332.72;;;15.82;33.54
5879;BME280;2965;42.640;23.370;2023-02-17T11:41:02;95322.25;;;16.02;34.39
5879;BME280;2965;42.640;23.370;2023-02-17T11:43:29;95314.31;;;16.02;34.42
5879;BME280;2965;42.640;23.370;2023-02-17T11:46:10;95320.25;;;16.04;34.22
5879;BME280;2965;42.640;23.370;2023-02-17T11:48:52;95322.38;;;16.42;34.87
5879;BME280;2965;42.640;23.370;2023-02-17T11:51:35;95317.59;;;16.78;34.17
5879;BME280;2965;42.640;23.370;2023-02-17T11:54:30;95318.31;;;16.46;33.57
5879;BME280;2965;42.640;23.370;2023-02-17T11:57:03;95312.47;;;16.57;34.68
5879;BME280;2965;42.640;23.370;2023-02-17T12:00:01;95306.91;;;16.25;34.25
5879;BME280;2965;42.640;23.370;2023-02-17T12:05:14;95303.72;;;16.63;34.99
5879;BME280;2965;42.640;23.370;2023-02-17T12:07:57;95300.94;;;16.78;34.87
5879;BME280;2965;42.640;23.370;2023-02-17T12:13:38;95295.25;;;17.14;34.08
5879;BME280;2965;42.640;23.370;2023-02-17T12:24:43;95277.31;;;17.29;34.95
5879;BME280;2965;42.640;23.370;2023-02-17T12:33:20;95269.19;;;17.24;33.58
5879;BME280;2965;42.640;23.370;2023-02-17T12:35:52;95264.50;;;17.33;33.82
5879;BME280;2965;42.640;23.370;2023-02-17T12:39:21;95258.22;;;17.27;34.61
5879;BME280;2965;42.640;23.370;2023-02-17T13:52:30;95222.25;;;17.78;30.86
5879;BME280;2965;42.640;23.370;2023-02-17T13:54:57;95221.78;;;17.94;30.55
5879;BME280;2965;42.640;23.370;2023-02-17T13:57:26;95227.31;;;18.24;30.03
5879;BME280;2965;42.640;23.370;2023-02-17T13:59:52;95227.84;;;18.01;29.87
5879;BME280;2965;42.640;23.370;2023-02-17T14:02:28;95220.91;;;18.07;30.79
5879;BME280;2965;42.640;23.370;2023-02-17T14:04:53;95221.25;;;17.72;30.21
5879;BME280;2965;42.640;23.370;2023-02-17T14:07:19;95217.91;;;17.38;30.33
5879;BME280;2965;42.640;23.370;2023-02-17T14:09:51;95221.94;;;17.48;30.65
5879;BME280;2965;42.640;23.370;2023-02-17T14:12:20;95219.59;;;17.20;30.40
5879;BME280;2965;42.640;23.370;2023-02-17T14:14:47;95221.97;;;17.34;28.61
5879;BME280;2965;42.640;23.370;2023-02-17T14:17:27;95219.50;;;17.39;29.19
5879;BME280;2965;42.640;23.370;2023-02-17T14:19:52;95215.44;;;17.44;28.78
5879;BME280;2965;42.640;23.370;2023-02-17T14:22:36;95220.03;;;17.10;29.52
5879;BME280;2965;42.640;23.370;2023-02-17T14:25:26;95219.19;;;17.03;29.83
5879;BME280;2965;42.640;23.370;2023-02-17T14:27:52;95223.66;;;17.22;30.42
5879;BME280;2965;42.640;23.370;2023-02-17T14:33:19;95226.56;;;16.87;31.25
5879;BME280;2965;42.640;23.370;2023-02-17T14:36:04;95232.22;;;16.45;31.84
5879;BME280;2965;42.640;23.370;2023-02-17T14:38:37;95222.38;;;15.92;33.10
5879;BME280;2965;42.640;23.370;2023-02-17T14:41:05;95234.84;;;16.31;33.22
5879;BME280;2965;42.640;23.370;2023-02-17T14:43:31;95226.72;;;16.53;32.83
5879;BME280;2965;42.640;23.370;2023-02-17T14:45:56;95230.16;;;16.47;33.51
5879;BME280;2965;42.640;23.370;2023-02-17T14:48:22;95225.72;;;16.67;33.62
5879;BME280;2965;42.640;23.370;2023-02-17T14:50:49;95222.88;;;16.62;34.33
5879;BME280;2965;42.640;23.370;2023-02-17T14:53:28;95229.78;;;16.50;34.72
5879;BME280;2965;42.640;23.370;2023-02-17T14:56:01;95218.75;;;16.20;34.26
5879;BME280;2965;42.640;23.370;2023-02-17T14:58:28;95217.97;;;16.19;34.28
5879;BME280;2965;42.640;23.370;2023-02-17T15:00:54;95223.25;;;16.46;34.40
5879;BME280;2965;42.640;23.370;2023-02-17T15:03:20;95227.94;;;16.44;34.34
5879;BME280;2965;42.640;23.370;2023-02-17T15:05:45;95215.75;;;16.16;34.75
5879;BME280;2965;42.640;23.370;2023-02-17T15:08:16;95223.59;;;15.89;35.29
5879;BME280;2965;42.640;23.370;2023-02-17T15:10:43;95220.28;;;15.74;36.34
5879;BME280;2965;42.640;23.370;2023-02-17T15:13:14;95223.38;;;15.36;36.39
5879;BME280;2965;42.640;23.370;2023-02-17T15:15:40;95232.59;;;15.19;36.97
5879;BME280;2965;42.640;23.370;2023-02-17T15:18:15;95231.56;;;14.85;38.15
5879;BME280;2965;42.640;23.370;2023-02-17T15:20:43;95226.09;;;14.59;37.10
5879;BME280;2965;42.640;23.370;2023-02-17T15:23:12;95223.34;;;14.24;37.88
5879;BME280;2965;42.640;23.370;2023-02-17T15:25:38;95223.59;;;14.08;38.91
5879;BME280;2965;42.640;23.370;2023-02-17T15:28:03;95228.94;;;13.78;39.57
5879;BME280;2965;42.640;23.370;2023-02-17T15:30:30;95231.31;;;13.73;39.83
5879;BME280;2965;42.640;23.370;2023-02-17T15:32:56;95232.31;;;13.72;40.17
5879;BME280;2965;42.640;23.370;2023-02-17T15:35:24;95236.88;;;14.00;38.89
5879;BME280;2965;42.640;23.370;2023-02-17T15:37:50;95242.63;;;14.10;39.55
5879;BME280;2965;42.640;23.370;2023-02-17T15:40:21;95241.94;;;14.23;39.05
5879;BME280;2965;42.640;23.370;2023-02-17T15:42:54;95243.25;;;14.33;39.17
5879;BME280;2965;42.640;23.370;2023-02-17T15:45:21;95249.28;;;14.27;38.14
5879;BME280;2965;42.640;23.370;2023-02-17T15:47:48;95250.63;;;14.02;38.62
5879;BME280;2965;42.640;23.370;2023-02-17T15:50:18;95261.06;;;13.74;39.74
5879;BME280;2965;42.640;23.370;2023-02-17T16:31:27;95300.31;;;11.78;44.61
5879;BME280;2965;42.640;23.370;2023-02-17T16:33:52;95306.03;;;11.43;45.15
5879;BME280;2965;42.640;23.370;2023-02-17T16:36:23;95302.50;;;11.11;46.22
5879;BME280;2965;42.640;23.370;2023-02-17T16:38:49;95304.66;;;11.07;45.71
5879;BME280;2965;42.640;23.370;2023-02-17T16:41:16;95311.03;;;11.05;45.60
5879;BME280;2965;42.640;23.370;2023-02-17T16:43:42;95315.84;;;10.85;45.66
5879;BME280;2965;42.640;23.370;2023-02-17T16:46:19;95319.25;;;10.77;45.80
5879;BME280;2965;42.640;23.370;2023-02-17T16:48:46;95314.66;;;10.88;46.11
5879;BME280;2965;42.640;23.370;2023-02-17T16:51:12;95316.16;;;10.90;45.87
5879;BME280;2965;42.640;23.370;2023-02-17T16:53:38;95317.47;;;10.86;45.63
5879;BME280;2965;42.640;23.370;2023-02-17T16:56:13;95314.97;;;10.84;45.52
5879;BME280;2965;42.640;23.370;2023-02-17T16:58:39;95315.97;;;10.92;44.32
5879;BME280;2965;42.640;23.370;2023-02-17T17:01:05;95319.91;;;10.88;44.18
5879;BME280;2965;42.640;23.370;2023-02-17T17:03:37;95318.28;;;10.86;43.45
5879;BME280;2965;42.640;23.370;2023-02-17T17:06:19;95315.97;;;10.92;44.20
5879;BME280;2965;42.640;23.370;2023-02-17T17:08:47;95320.22;;;10.84;45.06
5879;BME280;2965;42.640;23.370;2023-02-17T17:11:14;95320.88;;;10.78;43.40
5879;BME280;2965;42.640;23.370;2023-02-17T17:13:41;95322.69;;;10.86;42.90
5879;BME280;2965;42.640;23.370;2023-02-17T17:18:44;95313.41;;;10.67;42.62
5879;BME280;2965;42.640;23.370;2023-02-17T17:23:51;95322.19;;;10.66;43.37
5879;BME280;2965;42.640;23.370;2023-02-17T17:26:22;95317.78;;;10.67;43.27
5879;BME280;2965;42.640;23.370;2023-02-17T17:28:49;95314.69;;;10.63;43.52
5879;BME280;2965;42.640;23.370;2023-02-17T17:31:15;95307.81;;;10.62;43.28
5879;BME280;2965;42.640;23.370;2023-02-17T17:33:41;95314.34;;;10.58;43.54
5879;BME280;2965;42.640;23.370;2023-02-17T17:36:21;95301.13;;;10.43;43.91
5879;BME280;2965;42.640;23.370;2023-02-17T17:38:48;95299.66;;;10.32;43.56
5879;BME280;2965;42.640;23.370;2023-02-17T17:41:13;95300.16;;;10.36;44.75
5879;BME280;2965;42.640;23.370;2023-02-17T17:43:40;95313.00;;;10.21;44.00
5879;BME280;2965;42.640;23.370;2023-02-17T17:46:17;95307.16;;;10.27;44.79
5879;BME280;2965;42.640;23.370;2023-02-17T17:48:43;95298.78;;;10.24;43.90
5879;BME280;2965;42.640;23.370;2023-02-17T17:51:12;95302.53;;;10.21;43.89
5879;BME280;2965;42.640;23.370;2023-02-17T17:53:38;95297.03;;;10.24;44.45
5879;BME280;2965;42.640;23.370;2023-02-17T17:56:04;95295.06;;;10.26;44.63
5879;BME280;2965;42.640;23.370;2023-02-17T17:58:29;95303.22;;;10.23;45.07
5879;BME280;2965;42.640;23.370;2023-02-17T18:00:56;95302.53;;;10.21;45.46
5879;BME280;2965;42.640;23.370;2023-02-17T18:03:22;95295.34;;;10.15;45.19
5879;BME280;2965;42.640;23.370;2023-02-17T18:05:47;95296.81;;;10.18;44.37
5879;BME280;2965;42.640;23.370;2023-02-17T18:08:13;95297.66;;;10.18;44.98
5879;BME280;2965;42.640;23.370;2023-02-17T18:10:39;95304.00;;;10.16;44.71
5879;BME280;2965;42.640;23.370;2023-02-17T18:13:07;95299.59;;;10.16;44.34
5879;BME280;2965;42.640;23.370;2023-02-17T18:15:34;95295.69;;;10.20;44.42
5879;BME280;2965;42.640;23.370;2023-02-17T18:18:00;95288.66;;;10.21;44.47
5879;BME280;2965;42.640;23.370;2023-02-17T18:20:25;95292.41;;;10.18;44.50
5879;BME280;2965;42.640;23.370;2023-02-17T18:22:51;95293.06;;;10.12;45.06
5879;BME280;2965;42.640;23.370;2023-02-17T18:25:16;95292.06;;;10.13;45.52
5879;BME280;2965;42.640;23.370;2023-02-17T18:27:44;95292.06;;;10.05;45.79
5879;BME280;2965;42.640;23.370;2023-02-17T18:30:12;95284.84;;;9.99;45.36
5879;BME280;2965;42.640;23.370;2023-02-17T18:32:38;95291.06;;;9.98;46.18
5879;BME280;2965;42.640;23.370;2023-02-17T18:35:04;95289.75;;;9.94;45.95
5879;BME280;2965;42.640;23.370;2023-02-17T18:37:30;95293.00;;;9.96;45.33
5879;BME280;2965;42.640;23.370;2023-02-17T18:39:55;95286.31;;;9.85;45.10
5879;BME280;2965;42.640;23.370;2023-02-17T18:42:21;95280.22;;;9.68;45.71
5879;BME280;2965;42.640;23.370;2023-02-17T18:44:46;95286.09;;;9.62;46.39
5879;BME280;2965;42.640;23.370;2023-02-17T18:47:11;95285.06;;;9.55;46.95
5879;BME280;2965;42.640;23.370;2023-02-17T18:49:37;95294.53;;;9.48;46.45
5879;BME280;2965;42.640;23.370;2023-02-17T18:52:02;95281.94;;;9.43;47.60
5879;BME280;2965;42.640;23.370;2023-02-17T18:54:28;95288.53;;;9.21;49.15
5879;BME280;2965;42.640;23.370;2023-02-17T18:56:53;95292.91;;;8.87;50.96
5879;BME280;2965;42.640;23.370;2023-02-17T18:59:18;95299.59;;;8.89;49.86
5879;BME280;2965;42.640;23.370;2023-02-17T19:01:44;95295.53;;;8.87;52.58
5879;BME280;2965;42.640;23.370;2023-02-17T19:06:42;95305.63;;;8.64;51.58
5879;BME280;2965;42.640;23.370;2023-02-17T19:09:08;95301.91;;;8.48;52.29
5879;BME280;2965;42.640;23.370;2023-02-17T19:11:33;95302.75;;;8.49;52.95
5879;BME280;2965;42.640;23.370;2023-02-17T19:14:00;95308.63;;;8.33;54.60
5879;BME280;2965;42.640;23.370;2023-02-17T19:16:27;95311.28;;;8.05;55.90
5879;BME280;2965;42.640;23.370;2023-02-17T19:18:54;95316.13;;;8.18;56.94
5879;BME280;2965;42.640;23.370;2023-02-17T19:21:21;95319.25;;;7.86;57.56
5879;BME280;2965;42.640;23.370;2023-02-17T19:23:47;95320.09;;;7.59;59.00
5879;BME280;2965;42.640;23.370;2023-02-17T19:26:14;95324.81;;;7.46;59.48
5879;BME280;2965;42.640;23.370;2023-02-17T19:28:40;95326.16;;;7.50;60.05
5879;BME280;2965;42.640;23.370;2023-02-17T19:31:17;95340.31;;;7.38;60.57
5879;BME280;2965;42.640;23.370;2023-02-17T19:33:43;95342.13;;;7.37;60.33
5879;BME280;2965;42.640;23.370;2023-02-17T19:36:12;95343.69;;;7.48;61.15
5879;BME280;2965;42.640;23.370;2023-02-17T19:38:38;95344.00;;;7.45;61.35
5879;BME280;2965;42.640;23.370;2023-02-17T19:41:05;95338.59;;;7.28;61.30
5879;BME280;2965;42.640;23.370;2023-02-17T19:43:31;95338.13;;;7.05;62.75
5879;BME280;2965;42.640;23.370;2023-02-17T19:45:56;95341.47;;;6.78;64.34
5879;BME280;2965;42.640;23.370;2023-02-17T19:48:22;95339.31;;;6.64;62.75
5879;BME280;2965;42.640;23.370;2023-02-17T19:50:49;95332.59;;;6.71;64.06
5879;BME280;2965;42.640;23.370;2023-02-17T19:53:15;95332.50;;;6.44;67.20
5879;BME280;2965;42.640;23.370;2023-02-17T19:55:40;95340.72;;;6.20;69.89
5879;BME280;2965;42.640;23.370;2023-02-17T19:58:05;95336.59;;;5.98;69.14
5879;BME280;2965;42.640;23.370;2023-02-17T20:00:31;95333.84;;;6.28;67.34
5879;BME280;2965;42.640;23.370;2023-02-17T20:02:56;95340.16;;;6.36;68.57
5879;BME280;2965;42.640;23.370;2023-02-17T20:05:21;95336.19;;;6.31;67.18
5879;BME280;2965;42.640;23.370;2023-02-17T20:07:47;95336.31;;;6.40;66.45
5879;BME280;2965;42.640;23.370;2023-02-17T20:10:14;95323.31;;;6.40;67.83
5879;BME280;2965;42.640;23.370;2023-02-17T20:12:40;95322.34;;;6.41;68.00
5879;BME280;2965;42.640;23.370;2023-02-17T20:15:05;95322.88;;;6.54;65.71
5879;BME280;2965;42.640;23.370;2023-02-17T20:17:31;95318.00;;;6.51;67.44
5879;BME280;2965;42.640;23.370;2023-02-17T20:19:56;95311.56;;;6.36;67.17
5879;BME280;2965;42.640;23.370;2023-02-17T20:22:22;95315.94;;;6.45;66.42
5879;BME280;2965;42.640;23.370;2023-02-17T20:24:47;95316.91;;;6.24;69.13
5879;BME280;2965;42.640;23.370;2023-02-17T20:27:12;95316.91;;;6.24;69.49
5879;BME280;2965;42.640;23.370;2023-02-17T20:29:38;95319.09;;;6.29;69.67
5879;BME280;2965;42.640;23.370;2023-02-17T20:32:03;95313.34;;;6.16;68.38
5879;BME280;2965;42.640;23.370;2023-02-17T20:34:34;95317.16;;;6.31;68.56
5879;BME280;2965;42.640;23.370;2023-02-17T20:37:01;95319.16;;;5.89;70.23
5879;BME280;2965;42.640;23.370;2023-02-17T20:39:27;95321.25;;;5.95;69.60
5879;BME280;2965;42.640;23.370;2023-02-17T20:41:53;95313.47;;;6.04;69.97
5879;BME280;2965;42.640;23.370;2023-02-17T20:44:19;95314.28;;;6.05;71.76
5879;BME280;2965;42.640;23.370;2023-02-17T20:46:45;95322.25;;;5.53;73.96
5879;BME280;2965;42.640;23.370;2023-02-17T20:51:51;95320.09;;;4.88;78.93
5879;BME280;2965;42.640;23.370;2023-02-17T20:54:17;95320.63;;;4.91;79.14
5879;BME280;2965;42.640;23.370;2023-02-17T20:56:44;95323.47;;;5.09;77.92
5879;BME280;2965;42.640;23.370;2023-02-17T20:59:11;95321.63;;;5.00;79.78
5879;BME280;2965;42.640;23.370;2023-02-17T21:01:38;95329.69;;;4.97;80.53
5879;BME280;2965;42.640;23.370;2023-02-17T21:04:04;95334.09;;;5.06;79.83